createdAt,value
2018-07-01T00:04:38.067Z,101845.14
2018-07-01T00:09:40.433Z,101849.85
2018-07-01T00:14:42.715Z,101856.77
2018-07-01T00:19:45.023Z,101860.90
2018-07-01T00:24:47.340Z,101860.84
2018-07-01T00:29:49.647Z,101866.22
2018-07-01T00:34:51.950Z,101853.58
2018-07-01T00:39:54.318Z,101856.77
2018-07-01T00:44:56.614Z,101854.09
2018-07-01T00:49:58.925Z,101865.47
2018-07-01T00:55:01.239Z,101862.03
2018-07-01T01:00:04.070Z,101857.42
2018-07-01T01:05:06.383Z,101853.59
2018-07-01T01:10:08.716Z,101860.53
2018-07-01T01:15:11.037Z,101857.48
2018-07-01T01:20:13.359Z,101852.34
2018-07-01T01:25:15.629Z,101855.93
2018-07-01T01:30:17.923Z,101852.88
2018-07-01T01:35:20.235Z,101852.12
2018-07-01T01:40:25.668Z,101861.75
2018-07-01T01:45:31.868Z,101867.08
2018-07-01T01:51:12.539Z,101867.78
2018-07-01T01:56:20.978Z,101879.09
2018-07-01T02:01:28.606Z,101879.52
2018-07-01T02:06:34.247Z,101881.91
2018-07-01T02:11:40.022Z,101882.75
2018-07-01T02:16:46.923Z,101880.91
2018-07-01T02:21:49.494Z,101882.52
2018-07-01T02:26:51.817Z,101890.72
2018-07-01T02:31:54.094Z,101900.80
2018-07-01T02:36:56.359Z,101900.30
2018-07-01T02:41:58.696Z,101906.72
2018-07-01T02:47:01.005Z,101906.28
2018-07-01T02:52:03.695Z,101910.24
2018-07-01T02:57:05.988Z,101911.19
2018-07-01T03:02:08.271Z,101915.66
2018-07-01T03:07:10.534Z,101917.06
2018-07-01T03:12:12.842Z,101923.91
2018-07-01T03:17:15.082Z,101922.42
2018-07-01T03:22:17.358Z,101924.61
2018-07-01T03:27:19.614Z,101926.58
2018-07-01T03:32:21.872Z,101926.95
2018-07-01T03:37:24.137Z,101944.85
2018-07-01T03:42:26.418Z,101941.61
2018-07-01T03:47:28.685Z,101948.69
2018-07-01T03:52:30.931Z,101944.34
2018-07-01T03:57:33.192Z,101951.05
2018-07-01T04:02:35.459Z,101957.67
2018-07-01T04:07:37.757Z,101953.65
2018-07-01T04:12:40.058Z,101962.08
2018-07-01T04:17:42.396Z,101960.62
2018-07-01T04:22:44.637Z,101962.66
2018-07-01T04:27:46.893Z,101953.09
2018-07-01T04:32:49.168Z,101961.45
2018-07-01T04:37:51.456Z,101952.25
2018-07-01T04:42:53.730Z,101960.38
2018-07-01T04:47:55.992Z,101966.77
2018-07-01T04:52:58.291Z,101972.52
2018-07-01T04:58:00.531Z,101981.55
2018-07-01T05:03:02.996Z,101984.89
2018-07-01T05:08:05.311Z,101987.76
2018-07-01T05:13:07.595Z,101985.09
2018-07-01T05:18:09.872Z,101983.71
2018-07-01T05:23:12.150Z,101982.91
2018-07-01T05:28:14.412Z,101986.70
2018-07-01T05:33:16.685Z,101980.43
2018-07-01T05:38:18.947Z,101983.69
2018-07-01T05:43:21.222Z,101993.00
2018-07-01T05:48:23.500Z,101996.05
2018-07-01T05:53:25.762Z,101999.79
2018-07-01T05:58:28.002Z,101993.84
2018-07-01T06:03:30.503Z,101996.80
2018-07-01T06:08:33.052Z,101999.55
2018-07-01T06:13:35.311Z,101995.48
2018-07-01T06:18:37.586Z,102000.51
2018-07-01T06:23:39.859Z,101996.13
2018-07-01T06:28:42.149Z,101997.27
2018-07-01T06:33:44.428Z,101998.33
2018-07-01T06:38:46.695Z,102004.41
2018-07-01T06:43:49.032Z,102006.36
2018-07-01T06:48:51.340Z,102007.20
2018-07-01T06:53:53.642Z,102011.80
2018-07-01T06:58:55.915Z,102023.16
2018-07-01T07:03:58.190Z,102022.53
2018-07-01T07:09:01.040Z,102014.47
2018-07-01T07:14:03.610Z,102017.43
2018-07-01T07:19:06.178Z,102008.05
2018-07-01T07:24:08.501Z,102008.44
2018-07-01T07:29:10.783Z,101997.99
2018-07-01T07:34:13.122Z,102013.69
2018-07-01T07:39:15.422Z,102018.16
2018-07-01T07:44:17.694Z,102021.97
2018-07-01T07:49:20.016Z,102026.98
2018-07-01T07:54:22.410Z,102032.82
2018-07-01T07:59:24.690Z,102031.38
2018-07-01T08:04:26.989Z,102027.30
2018-07-01T08:09:29.301Z,102038.38
2018-07-01T08:14:31.633Z,102043.64
2018-07-01T08:19:33.932Z,102042.18
2018-07-01T08:24:36.248Z,102041.78
2018-07-01T08:29:38.560Z,102038.91
2018-07-01T08:34:40.974Z,102031.56
2018-07-01T08:39:43.621Z,102034.95
2018-07-01T08:44:45.943Z,102032.86
2018-07-01T08:49:48.216Z,102030.40
2018-07-01T08:54:50.562Z,102030.40
2018-07-01T08:59:52.889Z,102032.70
2018-07-01T09:04:55.174Z,102019.17
2018-07-01T09:09:57.514Z,102021.45
2018-07-01T09:14:59.820Z,102019.86
2018-07-01T09:20:02.162Z,102011.36
2018-07-01T09:25:05.006Z,102014.61
2018-07-01T09:30:07.369Z,102015.01
2018-07-01T09:35:09.662Z,102012.03
2018-07-01T09:40:11.949Z,102007.45
2018-07-01T09:45:14.272Z,102012.91
2018-07-01T09:50:16.632Z,102011.88
2018-07-01T09:55:19.026Z,102009.31
2018-07-01T10:00:21.339Z,102004.25
2018-07-01T10:05:23.660Z,102002.37
2018-07-01T10:10:25.997Z,102008.43
2018-07-01T10:15:28.374Z,102007.79
2018-07-01T10:20:30.798Z,102011.23
2018-07-01T10:25:33.221Z,102002.89
2018-07-01T10:30:35.541Z,102006.34
2018-07-01T10:35:37.870Z,102012.08
2018-07-01T10:40:40.374Z,102011.26
2018-07-01T10:45:42.701Z,102008.37
2018-07-01T10:50:45.051Z,102002.87
2018-07-01T10:55:47.394Z,102002.91
2018-07-01T11:00:50.005Z,101993.95
2018-07-01T11:05:52.294Z,101993.95
2018-07-01T11:10:54.612Z,101986.20
2018-07-01T11:15:57.154Z,101982.78
2018-07-01T11:21:00.161Z,101984.04
2018-07-01T11:26:02.523Z,101972.84
2018-07-01T11:31:04.903Z,101964.60
2018-07-01T11:36:07.278Z,101969.77
2018-07-01T11:41:09.668Z,101960.14
2018-07-01T11:46:12.028Z,101957.89
2018-07-01T11:51:14.380Z,101954.52
2018-07-01T11:56:16.726Z,101949.70
2018-07-01T12:01:19.042Z,101949.44
2018-07-01T12:06:21.351Z,101955.12
2018-07-01T12:11:23.635Z,101951.49
2018-07-01T12:16:25.970Z,101952.91
2018-07-01T12:21:28.291Z,101931.42
2018-07-01T12:26:30.632Z,101943.61
2018-07-01T12:31:32.969Z,101934.79
2018-07-01T12:36:35.304Z,101935.77
2018-07-01T12:41:37.680Z,101928.30
2018-07-01T12:46:40.054Z,101925.41
2018-07-01T12:51:42.386Z,101918.55
2018-07-01T12:56:44.744Z,101925.05
2018-07-01T13:01:47.176Z,101924.93
2018-07-01T13:06:49.495Z,101915.98
2018-07-01T13:11:51.887Z,101909.91
2018-07-01T13:16:54.196Z,101923.79
2018-07-01T13:21:57.893Z,101902.66
2018-07-01T13:27:00.284Z,101899.48
2018-07-01T13:32:02.772Z,101908.80
2018-07-01T13:37:05.319Z,101894.49
2018-07-01T13:42:07.645Z,101897.61
2018-07-01T13:47:09.954Z,101892.05
2018-07-01T13:52:12.281Z,101892.99
2018-07-01T13:57:14.641Z,101895.33
2018-07-01T14:02:16.996Z,101883.03
2018-07-01T14:07:19.310Z,101889.43
2018-07-01T14:12:21.659Z,101881.37
2018-07-01T14:17:24.011Z,101884.27
2018-07-01T14:22:26.363Z,101880.58
2018-07-01T14:27:28.690Z,101884.05
2018-07-01T14:32:31.065Z,101880.44
2018-07-01T14:37:33.379Z,101878.42
2018-07-01T14:42:35.688Z,101879.38
2018-07-01T14:47:38.235Z,101877.60
2018-07-01T14:52:40.636Z,101876.88
2018-07-01T14:57:43.011Z,101873.39
2018-07-01T15:02:45.332Z,101869.16
2018-07-01T15:07:47.678Z,101850.59
2018-07-01T15:12:50.011Z,101854.33
2018-07-01T15:17:52.366Z,101851.90
2018-07-01T15:22:54.685Z,101846.00
2018-07-01T15:27:57.037Z,101839.73
2018-07-01T15:32:59.408Z,101839.45
2018-07-01T15:38:01.925Z,101827.21
2018-07-01T15:43:04.457Z,101826.67
2018-07-01T15:48:06.791Z,101831.70
2018-07-01T15:53:09.176Z,101821.45
2018-07-01T15:58:11.505Z,101834.20
2018-07-01T16:03:13.790Z,101826.08
2018-07-01T16:08:16.293Z,101824.08
2018-07-01T16:13:18.619Z,101819.48
2018-07-01T16:18:20.974Z,101810.86
2018-07-01T16:23:23.315Z,101820.92
2018-07-01T16:28:31.330Z,101821.53
2018-07-01T16:33:33.702Z,101818.23
2018-07-01T16:38:36.006Z,101812.36
2018-07-01T16:43:38.390Z,101799.50
2018-07-01T16:48:40.766Z,101801.05
2018-07-01T16:53:43.131Z,101802.52
2018-07-01T16:58:45.485Z,101803.38
2018-07-01T17:03:47.818Z,101798.63
2018-07-01T17:08:50.122Z,101787.59
2018-07-01T17:13:52.982Z,101788.84
2018-07-01T17:18:55.344Z,101792.16
2018-07-01T17:23:57.660Z,101790.36
2018-07-01T17:29:00.011Z,101789.30
2018-07-01T17:34:02.659Z,101796.13
2018-07-01T17:39:07.379Z,101791.14
2018-07-01T17:44:10.076Z,101797.83
2018-07-01T17:49:12.439Z,101805.17
2018-07-01T17:54:14.991Z,101796.17
2018-07-01T17:59:17.291Z,101798.55
2018-07-01T18:04:20.523Z,101794.05
2018-07-01T18:09:22.900Z,101784.11
2018-07-01T18:14:25.288Z,101771.94
2018-07-01T18:19:27.669Z,101776.47
2018-07-01T18:24:53.946Z,101781.59
2018-07-01T18:29:32.419Z,101788.50
2018-07-01T18:34:34.801Z,101789.63
2018-07-01T18:39:37.252Z,101790.34
2018-07-01T18:44:40.560Z,101790.89
2018-07-01T18:49:42.968Z,101797.77
2018-07-01T18:54:45.351Z,101796.48
2018-07-01T18:59:47.784Z,101803.79
2018-07-01T19:04:50.161Z,101796.48
2018-07-01T19:09:52.508Z,101795.18
2018-07-01T19:14:54.856Z,101803.81
2018-07-01T19:19:57.342Z,101802.95
2018-07-01T19:24:59.698Z,101805.94
2018-07-01T19:30:02.068Z,101810.65
2018-07-01T19:35:04.607Z,101814.54
2018-07-01T19:40:06.963Z,101817.05
2018-07-01T19:45:09.401Z,101819.19
2018-07-01T19:50:11.789Z,101825.61
2018-07-01T19:55:14.224Z,101822.59
2018-07-01T20:00:16.643Z,101826.84
2018-07-01T20:05:19.091Z,101831.54
2018-07-01T20:10:21.459Z,101836.72
2018-07-01T20:15:23.826Z,101840.54
2018-07-01T20:20:26.175Z,101834.50
2018-07-01T20:25:28.512Z,101828.79
2018-07-01T20:30:30.852Z,101837.45
2018-07-01T20:35:33.157Z,101828.47
2018-07-01T20:40:35.503Z,101827.26
2018-07-01T20:45:37.834Z,101830.65
2018-07-01T20:50:40.214Z,101824.56
2018-07-01T20:55:42.576Z,101826.22
2018-07-01T21:00:44.901Z,101831.23
2018-07-01T21:05:47.217Z,101827.66
2018-07-01T21:10:49.500Z,101829.61
2018-07-01T21:15:51.844Z,101834.52
2018-07-01T21:20:54.183Z,101834.79
2018-07-01T21:25:56.356Z,101837.25
2018-07-01T21:30:58.512Z,101842.91
2018-07-01T21:36:00.692Z,101847.20
2018-07-01T21:41:02.910Z,101847.45
2018-07-01T21:46:05.092Z,101854.64
2018-07-01T21:51:07.784Z,101854.05
2018-07-01T21:56:09.968Z,101851.64
2018-07-01T22:01:12.211Z,101846.93
2018-07-01T22:06:14.428Z,101844.64
2018-07-01T22:11:44.664Z,101847.39
2018-07-01T22:16:46.820Z,101842.28
2018-07-01T22:21:50.069Z,101834.19
2018-07-01T22:26:52.247Z,101836.19
2018-07-01T22:31:54.478Z,101837.89
2018-07-01T22:36:56.664Z,101845.98
2018-07-01T22:41:59.907Z,101840.37
2018-07-01T22:47:02.087Z,101834.88
2018-07-01T22:52:04.296Z,101843.81
2018-07-01T22:57:06.467Z,101849.08
2018-07-01T23:03:17.019Z,101853.47
2018-07-01T23:08:19.136Z,101850.91
2018-07-01T23:13:21.307Z,101847.67
2018-07-01T23:18:23.509Z,101844.66
2018-07-01T23:23:25.701Z,101841.95
2018-07-01T23:28:27.880Z,101840.31
2018-07-01T23:33:30.018Z,101830.08
2018-07-01T23:38:32.150Z,101829.24
2018-07-01T23:43:34.319Z,101821.31
2018-07-01T23:48:36.446Z,101818.86
2018-07-01T23:53:38.573Z,101805.73
2018-07-01T23:58:40.690Z,101800.05
